createdAt,value
2019-03-04T00:02:28.935Z,2.43
2019-03-04T00:05:16.693Z,1.87
2019-03-04T00:07:45.134Z,3.07
2019-03-04T00:10:32.901Z,2.63
2019-03-04T00:13:01.351Z,2.87
2019-03-04T00:15:49.182Z,2.73
2019-03-04T00:18:29.416Z,2.10
2019-03-04T00:21:10.307Z,2.97
2019-03-04T00:23:38.836Z,2.63
2019-03-04T00:26:07.265Z,2.07
2019-03-04T00:28:35.679Z,2.40
2019-03-04T00:31:04.191Z,2.40
2019-03-04T00:33:32.627Z,2.30
2019-03-04T00:36:01.066Z,1.90
2019-03-04T00:38:29.502Z,1.90
2019-03-04T00:40:57.975Z,3.17
2019-03-04T00:43:26.390Z,1.57
2019-03-04T00:45:54.840Z,2.87
2019-03-04T00:48:42.636Z,2.37
2019-03-04T00:51:11.051Z,1.50
2019-03-04T00:53:39.482Z,1.67
2019-03-04T00:56:27.265Z,1.93
2019-03-04T00:58:55.680Z,1.73
2019-03-04T01:01:43.466Z,1.60
2019-03-04T01:04:11.920Z,1.73
2019-03-04T01:06:40.363Z,2.80
2019-03-04T01:09:10.517Z,1.60
2019-03-04T01:11:39.039Z,2.07
2019-03-04T01:14:07.455Z,2.47
2019-03-04T01:16:55.227Z,2.43
2019-03-04T01:19:23.701Z,2.40
2019-03-04T01:24:47.750Z,2.17
2019-03-04T01:27:16.182Z,1.77
2019-03-04T01:30:05.440Z,2.07
2019-03-04T01:32:33.881Z,2.17
2019-03-04T01:35:02.304Z,1.50
2019-03-04T01:37:50.255Z,1.30
2019-03-04T01:40:30.732Z,1.70
2019-03-04T01:42:59.191Z,1.83
2019-03-04T01:45:27.651Z,2.20
2019-03-04T01:48:15.432Z,2.10
2019-03-04T01:50:43.924Z,1.40
2019-03-04T01:53:12.369Z,1.17
2019-03-04T01:55:40.827Z,1.97
2019-03-04T01:58:09.292Z,2.80
2019-03-04T02:00:57.047Z,1.60
2019-03-04T02:03:25.500Z,2.00
2019-03-04T02:05:53.923Z,1.87
2019-03-04T02:08:22.388Z,1.40
2019-03-04T02:10:50.800Z,1.40
2019-03-04T02:13:19.710Z,2.17
2019-03-04T02:16:07.485Z,2.20
2019-03-04T02:18:48.499Z,1.30
2019-03-04T02:21:28.998Z,1.17
2019-03-04T02:24:09.937Z,1.03
2019-03-04T02:26:38.460Z,1.57
2019-03-04T02:29:06.942Z,2.40
2019-03-04T02:31:35.388Z,1.70
2019-03-04T02:34:03.817Z,1.50
2019-03-04T02:36:32.277Z,1.40
2019-03-04T02:39:20.044Z,1.70
2019-03-04T02:41:48.495Z,1.67
2019-03-04T02:44:36.256Z,1.47
2019-03-04T02:47:16.597Z,1.57
2019-03-04T02:49:57.181Z,1.37
2019-03-04T02:52:38.033Z,1.83
2019-03-04T02:55:07.838Z,1.63
2019-03-04T02:57:36.274Z,1.60
2019-03-04T03:00:24.026Z,1.70
2019-03-04T03:02:52.474Z,1.57
2019-03-04T03:05:20.925Z,1.83
2019-03-04T03:07:49.444Z,1.40
2019-03-04T03:10:17.862Z,1.50
2019-03-04T03:12:46.296Z,1.90
2019-03-04T03:15:17.113Z,1.60
2019-03-04T03:17:45.605Z,1.70
2019-03-04T03:20:33.451Z,1.47
2019-03-04T03:23:14.487Z,1.20
2019-03-04T03:25:44.367Z,1.30
2019-03-04T03:28:12.790Z,1.00
2019-03-04T03:33:36.668Z,1.27
2019-03-04T03:36:05.153Z,1.53
2019-03-04T03:38:52.937Z,1.57
2019-03-04T03:41:21.529Z,1.10
2019-03-04T03:44:09.565Z,1.00
2019-03-04T03:46:38.068Z,1.20
2019-03-04T03:49:06.522Z,1.20
2019-03-04T03:51:35.003Z,1.33
2019-03-04T03:54:03.427Z,1.30
2019-03-04T03:56:51.282Z,1.90
2019-03-04T03:59:19.727Z,1.30
2019-03-04T04:01:48.230Z,1.30
2019-03-04T04:04:16.727Z,1.20
2019-03-04T04:06:45.176Z,1.00
2019-03-04T04:09:13.600Z,1.63
2019-03-04T04:11:42.044Z,1.87
2019-03-04T04:14:10.458Z,1.83
2019-03-04T04:16:58.312Z,1.70
2019-03-04T04:19:46.076Z,1.93
2019-03-04T04:22:27.234Z,1.30
2019-03-04T04:24:55.711Z,1.70
2019-03-04T04:27:43.496Z,1.70
2019-03-04T04:30:29.175Z,1.63
2019-03-04T04:32:57.632Z,2.13
2019-03-04T04:35:26.108Z,1.73
2019-03-04T04:37:54.536Z,1.70
2019-03-04T04:40:22.971Z,1.60
2019-03-04T04:42:51.430Z,1.93
2019-03-04T04:45:19.857Z,2.07
2019-03-04T04:47:48.295Z,1.63
2019-03-04T04:50:27.884Z,1.23
2019-03-04T04:52:56.372Z,1.80
2019-03-04T04:55:24.824Z,2.37
2019-03-04T04:58:12.623Z,1.10
2019-03-04T05:00:41.039Z,1.70
2019-03-04T05:06:04.450Z,2.13
2019-03-04T05:08:32.875Z,1.47
2019-03-04T05:11:20.663Z,1.53
2019-03-04T05:13:49.097Z,1.17
2019-03-04T05:16:17.537Z,1.37
2019-03-04T05:19:05.299Z,1.50
2019-03-04T05:21:53.080Z,1.10
2019-03-04T05:24:21.569Z,1.20
2019-03-04T05:27:09.424Z,1.50
2019-03-04T05:29:57.186Z,0.97
2019-03-04T05:32:37.752Z,1.53
2019-03-04T05:35:19.359Z,2.10
2019-03-04T05:37:47.806Z,1.90
2019-03-04T05:40:21.305Z,0.93
2019-03-04T05:42:49.821Z,1.50
2019-03-04T05:45:37.611Z,1.50
2019-03-04T05:48:07.652Z,1.10
2019-03-04T05:50:36.453Z,1.30
2019-03-04T05:53:04.864Z,0.97
2019-03-04T05:55:33.479Z,1.50
2019-03-04T05:58:01.935Z,1.30
2019-03-04T06:00:41.004Z,2.43
2019-03-04T06:03:15.383Z,2.10
2019-03-04T06:05:56.493Z,1.40
2019-03-04T06:08:24.939Z,0.97
2019-03-04T06:10:53.368Z,1.10
2019-03-04T06:13:21.821Z,0.80
2019-03-04T06:15:50.276Z,1.40
2019-03-04T06:18:18.740Z,1.03
2019-03-04T06:21:06.504Z,1.20
2019-03-04T06:23:47.501Z,1.37
2019-03-04T06:26:28.129Z,1.20
2019-03-04T06:28:56.546Z,1.20
2019-03-04T06:31:25.069Z,1.10
2019-03-04T06:34:12.876Z,1.00
2019-03-04T06:36:41.697Z,1.07
2019-03-04T06:39:10.235Z,0.90
2019-03-04T06:41:38.706Z,1.30
2019-03-04T06:44:07.183Z,0.80
2019-03-04T06:46:36.168Z,1.20
2019-03-04T06:49:04.703Z,0.90
2019-03-04T06:51:39.553Z,1.40
2019-03-04T06:54:11.081Z,1.20
2019-03-04T06:57:03.337Z,1.13
2019-03-04T06:59:46.646Z,1.33
2019-03-04T07:02:23.299Z,1.20
2019-03-04T07:05:29.137Z,1.13
2019-03-04T07:08:09.544Z,1.50
2019-03-04T07:10:37.970Z,0.80
2019-03-04T07:13:06.444Z,1.13
2019-03-04T07:15:34.851Z,0.90
2019-03-04T07:18:03.318Z,0.73
2019-03-04T07:20:51.108Z,0.93
2019-03-04T07:23:19.554Z,1.00
2019-03-04T07:25:48.032Z,2.63
2019-03-04T07:28:16.467Z,0.73
2019-03-04T07:30:44.870Z,1.00
2019-03-04T07:33:13.315Z,1.03
2019-03-04T07:35:41.929Z,0.80
2019-03-04T07:38:25.418Z,1.17
2019-03-04T07:40:53.907Z,0.73
2019-03-04T07:43:22.351Z,0.70
2019-03-04T07:46:10.121Z,0.60
2019-03-04T07:48:38.587Z,0.53
2019-03-04T07:51:11.982Z,0.67
2019-03-04T07:53:46.298Z,1.17
2019-03-04T07:56:10.560Z,0.83
2019-03-04T07:58:39.014Z,1.90
2019-03-04T08:01:07.555Z,0.87
2019-03-04T08:03:35.994Z,0.87
2019-03-04T08:06:25.305Z,0.93
2019-03-04T08:09:22.459Z,1.30
2019-03-04T08:11:56.446Z,1.37
2019-03-04T08:14:44.600Z,0.70
2019-03-04T08:17:13.056Z,1.20
2019-03-04T08:20:00.812Z,0.90
2019-03-04T08:22:41.299Z,1.00
2019-03-04T08:25:10.905Z,1.40
2019-03-04T08:27:40.345Z,1.00
2019-03-04T08:30:11.844Z,0.70
2019-03-04T08:32:40.297Z,1.27
2019-03-04T08:35:08.783Z,1.50
2019-03-04T08:37:56.568Z,1.17
2019-03-04T08:40:25.000Z,1.23
2019-03-04T08:43:12.788Z,1.10
2019-03-04T08:45:41.214Z,1.70
2019-03-04T08:48:09.748Z,1.07
2019-03-04T08:50:57.583Z,2.87
2019-03-04T08:53:26.115Z,0.90
2019-03-04T08:55:54.627Z,1.20
2019-03-04T08:58:23.096Z,0.90
2019-03-04T09:01:10.919Z,1.27
2019-03-04T09:03:51.609Z,1.30
2019-03-04T09:06:20.028Z,1.20
2019-03-04T09:08:48.451Z,2.07
2019-03-04T09:11:17.439Z,1.33
2019-03-04T09:13:45.889Z,1.47
2019-03-04T09:16:14.393Z,1.00
2019-03-04T09:19:02.182Z,0.93
2019-03-04T09:21:30.611Z,1.37
2019-03-04T09:23:59.052Z,1.93
2019-03-04T09:26:27.480Z,1.03
2019-03-04T09:28:55.907Z,1.87
2019-03-04T09:31:24.332Z,2.07
2019-03-04T09:33:52.775Z,1.13
2019-03-04T09:36:21.201Z,1.57
2019-03-04T09:38:49.653Z,1.17
2019-03-04T09:41:18.101Z,1.13
2019-03-04T09:44:05.886Z,1.40
2019-03-04T09:46:34.312Z,1.47
2019-03-04T09:49:03.220Z,1.47
2019-03-04T09:51:31.656Z,0.90
2019-03-04T09:54:00.091Z,1.30
2019-03-04T09:56:28.543Z,0.90
2019-03-04T09:58:56.987Z,0.70
2019-03-04T10:01:46.637Z,0.83
2019-03-04T10:04:36.767Z,0.63
2019-03-04T10:07:17.126Z,0.50
2019-03-04T10:10:00.384Z,0.50
2019-03-04T10:12:40.792Z,0.67
2019-03-04T10:15:15.347Z,0.87
2019-03-04T10:17:52.886Z,0.60
2019-03-04T10:20:54.640Z,3.50
2019-03-04T10:23:41.330Z,0.70
2019-03-04T10:26:33.354Z,0.67
2019-03-04T10:29:28.355Z,0.60
2019-03-04T10:31:59.872Z,0.60
2019-03-04T10:34:47.783Z,0.90
2019-03-04T10:37:43.285Z,0.50
2019-03-04T10:41:04.334Z,0.63
2019-03-04T10:43:47.463Z,2.03
2019-03-04T10:46:39.400Z,0.60
2019-03-04T10:49:07.860Z,0.63
2019-03-04T10:51:36.313Z,1.70
2019-03-04T10:54:24.144Z,1.50
2019-03-04T10:56:52.596Z,1.10
2019-03-04T10:59:21.008Z,0.90
2019-03-04T11:02:08.809Z,0.83
2019-03-04T11:04:37.238Z,1.20
2019-03-04T11:07:05.672Z,0.90
2019-03-04T11:09:34.123Z,1.83
2019-03-04T11:12:02.553Z,1.30
2019-03-04T11:14:31.018Z,1.63
2019-03-04T11:16:59.460Z,1.30
2019-03-04T11:19:27.917Z,1.00
2019-03-04T11:22:15.784Z,1.07
2019-03-04T11:25:04.391Z,0.90
2019-03-04T11:27:32.850Z,1.97
2019-03-04T11:30:01.343Z,0.93
2019-03-04T11:32:29.786Z,1.43
2019-03-04T11:35:17.659Z,1.97
2019-03-04T11:37:46.110Z,1.20
2019-03-04T11:40:19.573Z,1.30
2019-03-04T11:42:47.987Z,1.70
2019-03-04T11:45:17.828Z,2.50
2019-03-04T11:48:05.643Z,1.53
2019-03-04T11:50:34.075Z,1.30
2019-03-04T11:53:02.594Z,1.47
2019-03-04T11:55:32.904Z,2.00
2019-03-04T11:58:01.452Z,2.17
2019-03-04T12:00:34.906Z,2.00
2019-03-04T12:03:03.400Z,1.17
2019-03-04T12:05:31.855Z,1.87
2019-03-04T12:08:00.281Z,2.00
2019-03-04T12:10:28.727Z,1.80
2019-03-04T12:12:57.140Z,2.80
2019-03-04T12:15:44.919Z,2.50
2019-03-04T12:18:13.332Z,1.67
2019-03-04T12:20:41.771Z,1.60
2019-03-04T12:23:10.295Z,2.17
2019-03-04T12:25:38.713Z,1.97
2019-03-04T12:28:07.169Z,2.60
2019-03-04T12:30:35.679Z,1.77
2019-03-04T12:33:23.445Z,1.87
2019-03-04T12:36:11.299Z,2.13
2019-03-04T12:38:39.751Z,1.87
2019-03-04T12:41:08.262Z,1.67
2019-03-04T12:43:36.681Z,1.67
2019-03-04T12:46:24.481Z,3.13
2019-03-04T12:48:52.927Z,3.47
2019-03-04T12:51:23.349Z,3.03
2019-03-04T12:53:51.529Z,3.63
2019-03-04T12:56:19.957Z,3.97
2019-03-04T12:59:07.808Z,2.87
2019-03-04T13:01:36.229Z,2.30
2019-03-04T13:04:04.676Z,4.17
2019-03-04T13:06:33.115Z,3.97
2019-03-04T13:09:14.563Z,3.60
2019-03-04T13:11:38.643Z,1.83
2019-03-04T13:14:07.095Z,3.10
2019-03-04T13:16:35.511Z,2.17
2019-03-04T13:19:04.031Z,2.63
2019-03-04T13:21:32.497Z,3.20
2019-03-04T13:24:00.915Z,2.07
2019-03-04T13:26:29.339Z,2.33
2019-03-04T13:28:57.806Z,2.40
2019-03-04T13:31:26.223Z,2.60
2019-03-04T13:33:54.644Z,2.23
2019-03-04T13:36:23.092Z,2.00
2019-03-04T13:38:51.554Z,1.63
2019-03-04T13:41:19.977Z,1.40
2019-03-04T13:43:48.411Z,2.40
2019-03-04T13:46:16.928Z,1.97
2019-03-04T13:48:45.380Z,2.57
2019-03-04T13:51:13.807Z,2.50
2019-03-04T13:53:42.248Z,1.87
2019-03-04T13:56:10.863Z,2.43
2019-03-04T13:58:39.313Z,2.57
2019-03-04T14:01:07.886Z,2.47
2019-03-04T14:03:49.081Z,2.30
2019-03-04T14:06:17.573Z,1.60
2019-03-04T14:08:45.995Z,1.63
2019-03-04T14:11:14.467Z,1.83
2019-03-04T14:13:42.898Z,1.67
2019-03-04T14:16:11.411Z,2.53
2019-03-04T14:18:39.835Z,1.33
2019-03-04T14:21:27.639Z,2.37
2019-03-04T14:23:56.072Z,2.20
2019-03-04T14:26:43.855Z,2.17
2019-03-04T14:29:12.283Z,2.00
2019-03-04T14:32:00.063Z,2.70
2019-03-04T14:34:28.495Z,1.80
2019-03-04T14:37:16.376Z,1.40
2019-03-04T14:39:44.887Z,1.57
2019-03-04T14:42:32.656Z,3.40
2019-03-04T14:45:01.104Z,2.00
2019-03-04T14:47:29.556Z,1.20
2019-03-04T14:50:09.138Z,2.50
2019-03-04T14:55:28.143Z,2.50
2019-03-04T14:57:56.659Z,2.00
2019-03-04T15:03:40.041Z,2.47
2019-03-04T15:06:08.536Z,1.87
2019-03-04T15:08:36.983Z,2.17
2019-03-04T15:11:05.411Z,1.47
2019-03-04T15:13:33.859Z,2.37
2019-03-04T15:16:04.424Z,1.23
2019-03-04T15:18:32.451Z,2.20
2019-03-04T15:21:00.934Z,1.57
2019-03-04T15:23:48.740Z,1.73
2019-03-04T15:26:17.166Z,1.40
2019-03-04T15:28:45.610Z,1.70
2019-03-04T15:31:33.383Z,1.30
2019-03-04T15:34:21.174Z,2.63
2019-03-04T15:36:49.597Z,1.60
2019-03-04T15:39:23.065Z,2.33
2019-03-04T15:42:07.536Z,1.87
2019-03-04T15:44:36.040Z,1.40
2019-03-04T15:47:04.699Z,1.47
2019-03-04T15:49:33.125Z,1.50
2019-03-04T15:52:01.573Z,1.13
2019-03-04T15:54:30.000Z,1.30
2019-03-04T15:57:17.772Z,1.20
2019-03-04T16:00:10.024Z,0.90
2019-03-04T16:02:38.451Z,1.30
2019-03-04T16:05:10.276Z,2.53
2019-03-04T16:07:50.664Z,2.10
2019-03-04T16:10:21.592Z,1.73
2019-03-04T16:12:50.065Z,2.50
2019-03-04T16:15:39.323Z,1.37
2019-03-04T16:18:07.743Z,2.00
2019-03-04T16:20:36.328Z,2.27
2019-03-04T16:23:24.164Z,1.00
2019-03-04T16:25:52.615Z,1.50
2019-03-04T16:28:40.453Z,1.53
2019-03-04T16:31:08.971Z,1.80
2019-03-04T16:33:39.351Z,1.20
2019-03-04T16:36:07.702Z,1.63
2019-03-04T16:38:36.161Z,2.50
2019-03-04T16:41:04.988Z,1.10
2019-03-04T16:43:52.784Z,1.77
2019-03-04T16:46:33.248Z,2.07
2019-03-04T16:49:01.693Z,1.00
2019-03-04T16:51:30.178Z,1.20
2019-03-04T16:53:58.628Z,2.10
2019-03-04T16:56:27.080Z,2.13
2019-03-04T16:58:55.507Z,1.43
2019-03-04T17:01:23.954Z,1.10
2019-03-04T17:03:52.395Z,1.77
2019-03-04T17:06:20.815Z,3.20
2019-03-04T17:09:01.292Z,2.10
2019-03-04T17:11:29.752Z,2.00
2019-03-04T17:13:58.320Z,1.50
2019-03-04T17:16:26.739Z,1.20
2019-03-04T17:18:55.189Z,1.10
2019-03-04T17:21:23.614Z,1.87
2019-03-04T17:23:52.031Z,1.10
2019-03-04T17:26:20.625Z,1.30
2019-03-04T17:28:49.033Z,1.13
2019-03-04T17:31:17.471Z,0.97
2019-03-04T17:33:45.896Z,1.43
2019-03-04T17:36:16.611Z,1.70
2019-03-04T17:38:48.013Z,1.60
2019-03-04T17:41:16.456Z,2.00
2019-03-04T17:43:44.883Z,1.30
2019-03-04T17:46:13.451Z,2.20
2019-03-04T17:48:42.621Z,2.87
2019-03-04T17:51:11.158Z,1.60
2019-03-04T17:53:39.731Z,2.53
2019-03-04T17:56:08.488Z,2.47
2019-03-04T17:58:38.832Z,1.77
2019-03-04T18:01:10.609Z,1.20
2019-03-04T18:03:39.222Z,1.63
2019-03-04T18:06:15.946Z,1.47
2019-03-04T18:08:44.925Z,1.10
2019-03-04T18:11:15.179Z,1.33
2019-03-04T18:13:43.974Z,1.63
2019-03-04T18:16:12.994Z,1.73
2019-03-04T18:18:41.931Z,1.20
2019-03-04T18:21:10.574Z,1.53
2019-03-04T18:23:39.205Z,1.60
2019-03-04T18:26:29.048Z,1.50
2019-03-04T18:29:18.890Z,1.80
2019-03-04T18:31:50.707Z,1.17
2019-03-04T18:34:46.015Z,2.80
2019-03-04T18:37:35.463Z,2.27
2019-03-04T18:40:07.126Z,1.77
2019-03-04T18:42:53.655Z,1.63
2019-03-04T18:45:40.160Z,1.97
2019-03-04T18:48:36.519Z,1.60
2019-03-04T18:51:05.013Z,1.93
2019-03-04T18:53:33.459Z,2.13
2019-03-04T18:56:01.879Z,2.30
2019-03-04T18:58:30.348Z,3.27
2019-03-04T19:00:58.850Z,1.93
2019-03-04T19:03:27.264Z,1.80
2019-03-04T19:06:15.522Z,2.00
2019-03-04T19:08:43.972Z,1.30
2019-03-04T19:11:12.416Z,2.30
2019-03-04T19:13:40.868Z,3.33
2019-03-04T19:16:28.703Z,2.50
2019-03-04T19:18:57.148Z,2.10
2019-03-04T19:21:25.595Z,2.23
2019-03-04T19:23:54.140Z,2.50
2019-03-04T19:26:22.604Z,2.37
2019-03-04T19:28:51.023Z,2.80
2019-03-04T19:31:19.487Z,3.20
2019-03-04T19:33:47.916Z,2.30
2019-03-04T19:36:16.399Z,1.93
2019-03-04T19:39:05.727Z,1.53
2019-03-04T19:41:34.187Z,1.80
2019-03-04T19:44:02.637Z,2.00
2019-03-04T19:46:31.075Z,2.10
2019-03-04T19:51:55.290Z,2.50
2019-03-04T19:54:23.751Z,2.03
2019-03-04T19:56:52.205Z,2.97
2019-03-04T19:59:20.725Z,3.40
2019-03-04T20:01:49.151Z,1.87
2019-03-04T20:04:17.643Z,2.00
2019-03-04T20:06:46.091Z,1.90
2019-03-04T20:09:14.667Z,2.20
2019-03-04T20:11:43.094Z,2.30
2019-03-04T20:14:11.976Z,2.20
2019-03-04T20:16:40.461Z,1.80
2019-03-04T20:19:08.970Z,2.20
2019-03-04T20:21:37.388Z,1.70
2019-03-04T20:27:01.314Z,2.23
2019-03-04T20:29:29.894Z,1.60
2019-03-04T20:31:58.846Z,2.83
2019-03-04T20:34:27.616Z,1.77
2019-03-04T20:36:56.444Z,2.40
2019-03-04T20:39:25.507Z,1.53
2019-03-04T20:41:55.459Z,2.27
2019-03-04T20:44:24.301Z,2.57
2019-03-04T20:46:52.744Z,3.63
2019-03-04T20:49:21.310Z,2.37
2019-03-04T20:51:49.867Z,2.80
2019-03-04T20:54:18.786Z,2.47
2019-03-04T20:56:47.276Z,2.33
2019-03-04T20:59:15.732Z,2.33
2019-03-04T21:01:44.241Z,3.03
2019-03-04T21:04:12.846Z,2.50
2019-03-04T21:06:42.794Z,2.93
2019-03-04T21:09:13.354Z,3.90
2019-03-04T21:11:41.947Z,3.00
2019-03-04T21:14:10.495Z,3.40
2019-03-04T21:16:38.935Z,3.80
2019-03-04T21:19:07.471Z,3.07
2019-03-04T21:21:36.309Z,2.47
2019-03-04T21:24:05.278Z,2.20
2019-03-04T21:26:34.060Z,2.50
2019-03-04T21:29:07.755Z,2.90
2019-03-04T21:32:02.612Z,2.07
2019-03-04T21:34:51.840Z,1.80
2019-03-04T21:37:26.247Z,3.03
2019-03-04T21:39:57.833Z,2.80
2019-03-04T21:42:45.574Z,3.10
2019-03-04T21:45:35.452Z,3.73
2019-03-04T21:48:09.814Z,4.83
2019-03-04T21:50:56.114Z,4.53
2019-03-04T21:53:30.247Z,3.40
2019-03-04T21:56:28.493Z,2.80
2019-03-04T21:58:57.014Z,2.83
2019-03-04T22:01:34.303Z,5.70
2019-03-04T22:07:17.411Z,3.50
2019-03-04T22:09:45.895Z,2.80
2019-03-04T22:12:15.287Z,4.47
2019-03-04T22:14:43.832Z,3.30
2019-03-04T22:17:12.328Z,3.10
2019-03-04T22:19:40.987Z,4.03
2019-03-04T22:22:09.453Z,4.47
2019-03-04T22:24:37.862Z,3.93
2019-03-04T22:27:06.318Z,3.03
2019-03-04T22:29:34.745Z,4.37
2019-03-04T22:32:03.165Z,2.40
2019-03-04T22:34:31.575Z,2.97
2019-03-04T22:37:00.143Z,3.30
2019-03-04T22:39:28.603Z,3.20
2019-03-04T22:41:57.047Z,3.30
2019-03-04T22:44:25.579Z,2.53
2019-03-04T22:46:54.023Z,3.70
2019-03-04T22:49:22.441Z,2.83
2019-03-04T22:51:50.891Z,2.90
2019-03-04T22:54:19.407Z,3.20
2019-03-04T22:56:47.940Z,2.60
2019-03-04T22:59:35.780Z,4.10
2019-03-04T23:02:06.065Z,2.90
2019-03-04T23:04:34.602Z,3.73
2019-03-04T23:07:05.887Z,2.50
2019-03-04T23:10:01.156Z,2.40
2019-03-04T23:12:38.387Z,1.93
2019-03-04T23:15:27.808Z,2.10
2019-03-04T23:17:56.264Z,2.20
2019-03-04T23:20:24.683Z,2.63
2019-03-04T23:22:53.122Z,2.60
2019-03-04T23:25:21.574Z,2.47
2019-03-04T23:27:49.987Z,1.70
2019-03-04T23:30:18.503Z,1.57
2019-03-04T23:32:46.951Z,1.67
2019-03-04T23:35:15.371Z,2.40
2019-03-04T23:37:43.828Z,3.10
2019-03-04T23:40:12.307Z,2.30
2019-03-04T23:42:40.758Z,2.50
2019-03-04T23:45:28.594Z,2.20
2019-03-04T23:48:08.893Z,2.00
2019-03-04T23:50:37.313Z,2.30
2019-03-04T23:53:05.727Z,2.10
2019-03-04T23:55:53.530Z,1.83
2019-03-04T23:58:21.966Z,1.77
